sensor_id;sensor_type;location;lat;lon;timestamp;P1;durP1;ratioP1;P2;durP2;ratioP2
71734;SDS011;59577;52.122;5.406;2022-09-02T00:01:17;1.85;;;0.20;;
71734;SDS011;59577;52.122;5.406;2022-09-02T00:03:49;2.75;;;0.20;;
71734;SDS011;59577;52.122;5.406;2022-09-02T00:06:17;0.40;;;0.20;;
71734;SDS011;59577;52.122;5.406;2022-09-02T00:08:43;2.55;;;0.30;;
71734;SDS011;59577;52.122;5.406;2022-09-02T00:11:14;0.50;;;0.20;;
71734;SDS011;59577;52.122;5.406;2022-09-02T00:13:45;0.40;;;0.20;;
71734;SDS011;59577;52.122;5.406;2022-09-02T00:16:12;0.65;;;0.20;;
71734;SDS011;59577;52.122;5.406;2022-09-02T00:18:39;1.05;;;0.20;;
71734;SDS011;59577;52.122;5.406;2022-09-02T00:21:11;1.58;;;0.30;;
71734;SDS011;59577;52.122;5.406;2022-09-02T00:23:39;0.47;;;0.20;;
71734;SDS011;59577;52.122;5.406;2022-09-02T00:26:07;2.33;;;0.30;;
71734;SDS011;59577;52.122;5.406;2022-09-02T00:28:33;0.43;;;0.20;;
71734;SDS011;59577;52.122;5.406;2022-09-02T00:31:00;2.00;;;0.20;;
71734;SDS011;59577;52.122;5.406;2022-09-02T00:33:27;2.72;;;0.25;;
71734;SDS011;59577;52.122;5.406;2022-09-02T00:35:53;0.50;;;0.20;;
71734;SDS011;59577;52.122;5.406;2022-09-02T00:38:20;0.73;;;0.25;;
71734;SDS011;59577;52.122;5.406;2022-09-02T00:40:48;0.60;;;0.20;;
71734;SDS011;59577;52.122;5.406;2022-09-02T00:43:25;0.50;;;0.20;;
71734;SDS011;59577;52.122;5.406;2022-09-02T00:46:08;1.98;;;0.20;;
71734;SDS011;59577;52.122;5.406;2022-09-02T00:48:37;0.93;;;0.30;;
71734;SDS011;59577;52.122;5.406;2022-09-02T00:51:07;1.00;;;0.20;;
71734;SDS011;59577;52.122;5.406;2022-09-02T00:53:34;0.40;;;0.20;;
71734;SDS011;59577;52.122;5.406;2022-09-02T00:56:05;0.40;;;0.20;;
71734;SDS011;59577;52.122;5.406;2022-09-02T00:58:35;1.10;;;0.30;;
71734;SDS011;59577;52.122;5.406;2022-09-02T01:01:02;0.40;;;0.20;;
71734;SDS011;59577;52.122;5.406;2022-09-02T01:03:30;0.73;;;0.20;;
71734;SDS011;59577;52.122;5.406;2022-09-02T01:05:58;0.98;;;0.15;;
71734;SDS011;59577;52.122;5.406;2022-09-02T01:08:28;0.70;;;0.20;;
71734;SDS011;59577;52.122;5.406;2022-09-02T01:11:00;1.27;;;0.30;;
71734;SDS011;59577;52.122;5.406;2022-09-02T01:13:38;3.65;;;0.38;;
71734;SDS011;59577;52.122;5.406;2022-09-02T01:18:36;1.48;;;0.20;;
71734;SDS011;59577;52.122;5.406;2022-09-02T01:21:04;0.63;;;0.20;;
71734;SDS011;59577;52.122;5.406;2022-09-02T01:23:31;1.90;;;0.30;;
71734;SDS011;59577;52.122;5.406;2022-09-02T01:26:00;0.40;;;0.22;;
71734;SDS011;59577;52.122;5.406;2022-09-02T01:28:27;0.50;;;0.20;;
71734;SDS011;59577;52.122;5.406;2022-09-02T01:30:53;0.60;;;0.30;;
71734;SDS011;59577;52.122;5.406;2022-09-02T01:33:21;0.77;;;0.28;;
71734;SDS011;59577;52.122;5.406;2022-09-02T01:35:51;0.95;;;0.20;;
71734;SDS011;59577;52.122;5.406;2022-09-02T01:38:19;0.53;;;0.30;;
71734;SDS011;59577;52.122;5.406;2022-09-02T01:40:48;1.20;;;0.20;;
71734;SDS011;59577;52.122;5.406;2022-09-02T01:43:16;1.45;;;0.20;;
71734;SDS011;59577;52.122;5.406;2022-09-02T01:45:52;3.03;;;0.32;;
71734;SDS011;59577;52.122;5.406;2022-09-02T01:48:20;0.50;;;0.20;;
71734;SDS011;59577;52.122;5.406;2022-09-02T01:50:54;0.35;;;0.20;;
71734;SDS011;59577;52.122;5.406;2022-09-02T01:53:23;0.65;;;0.30;;
71734;SDS011;59577;52.122;5.406;2022-09-02T01:55:50;0.70;;;0.20;;
71734;SDS011;59577;52.122;5.406;2022-09-02T01:58:17;0.30;;;0.20;;
71734;SDS011;59577;52.122;5.406;2022-09-02T02:00:44;0.82;;;0.30;;
71734;SDS011;59577;52.122;5.406;2022-09-02T02:03:12;0.55;;;0.20;;
71734;SDS011;59577;52.122;5.406;2022-09-02T02:05:39;0.20;;;0.10;;
71734;SDS011;59577;52.122;5.406;2022-09-02T02:08:06;0.55;;;0.20;;
71734;SDS011;59577;52.122;5.406;2022-09-02T02:10:33;0.70;;;0.30;;
71734;SDS011;59577;52.122;5.406;2022-09-02T02:12:59;3.17;;;0.30;;
71734;SDS011;59577;52.122;5.406;2022-09-02T02:15:27;0.45;;;0.20;;
71734;SDS011;59577;52.122;5.406;2022-09-02T02:17:52;2.35;;;0.25;;
71734;SDS011;59577;52.122;5.406;2022-09-02T02:20:19;1.37;;;0.20;;
71734;SDS011;59577;52.122;5.406;2022-09-02T02:22:46;0.30;;;0.20;;
71734;SDS011;59577;52.122;5.406;2022-09-02T02:25:14;2.15;;;0.22;;
71734;SDS011;59577;52.122;5.406;2022-09-02T02:27:42;0.70;;;0.20;;
71734;SDS011;59577;52.122;5.406;2022-09-02T02:30:09;0.60;;;0.25;;
71734;SDS011;59577;52.122;5.406;2022-09-02T02:32:37;0.60;;;0.10;;
71734;SDS011;59577;52.122;5.406;2022-09-02T02:35:05;0.43;;;0.20;;
71734;SDS011;59577;52.122;5.406;2022-09-02T02:37:31;0.85;;;0.25;;
71734;SDS011;59577;52.122;5.406;2022-09-02T02:39:58;1.33;;;0.28;;
71734;SDS011;59577;52.122;5.406;2022-09-02T02:42:25;0.60;;;0.30;;
71734;SDS011;59577;52.122;5.406;2022-09-02T02:44:51;0.70;;;0.20;;
71734;SDS011;59577;52.122;5.406;2022-09-02T02:47:18;0.75;;;0.30;;
71734;SDS011;59577;52.122;5.406;2022-09-02T02:49:44;0.40;;;0.25;;
71734;SDS011;59577;52.122;5.406;2022-09-02T02:52:11;0.45;;;0.20;;
71734;SDS011;59577;52.122;5.406;2022-09-02T02:54:38;0.32;;;0.13;;
71734;SDS011;59577;52.122;5.406;2022-09-02T02:57:06;1.53;;;0.30;;
71734;SDS011;59577;52.122;5.406;2022-09-02T02:59:34;1.30;;;0.30;;
71734;SDS011;59577;52.122;5.406;2022-09-02T03:02:02;1.67;;;0.20;;
71734;SDS011;59577;52.122;5.406;2022-09-02T03:04:31;1.27;;;0.30;;
71734;SDS011;59577;52.122;5.406;2022-09-02T03:06:58;1.42;;;0.20;;
71734;SDS011;59577;52.122;5.406;2022-09-02T03:09:24;0.73;;;0.30;;
71734;SDS011;59577;52.122;5.406;2022-09-02T03:11:51;0.98;;;0.30;;
71734;SDS011;59577;52.122;5.406;2022-09-02T03:14:17;1.05;;;0.30;;
71734;SDS011;59577;52.122;5.406;2022-09-02T03:16:44;0.47;;;0.20;;
71734;SDS011;59577;52.122;5.406;2022-09-02T03:19:10;2.47;;;0.30;;
71734;SDS011;59577;52.122;5.406;2022-09-02T03:21:39;0.50;;;0.20;;
71734;SDS011;59577;52.122;5.406;2022-09-02T03:24:08;0.52;;;0.20;;
71734;SDS011;59577;52.122;5.406;2022-09-02T03:26:36;1.92;;;0.30;;
71734;SDS011;59577;52.122;5.406;2022-09-02T03:29:03;1.02;;;0.30;;
71734;SDS011;59577;52.122;5.406;2022-09-02T03:31:30;3.50;;;0.35;;
71734;SDS011;59577;52.122;5.406;2022-09-02T03:33:57;1.40;;;0.27;;
71734;SDS011;59577;52.122;5.406;2022-09-02T03:36:25;0.63;;;0.30;;
71734;SDS011;59577;52.122;5.406;2022-09-02T03:39:00;0.52;;;0.20;;
71734;SDS011;59577;52.122;5.406;2022-09-02T03:41:28;1.08;;;0.20;;
71734;SDS011;59577;52.122;5.406;2022-09-02T03:43:55;0.70;;;0.22;;
71734;SDS011;59577;52.122;5.406;2022-09-02T03:46:22;0.50;;;0.30;;
71734;SDS011;59577;52.122;5.406;2022-09-02T03:48:50;1.15;;;0.20;;
71734;SDS011;59577;52.122;5.406;2022-09-02T03:51:20;0.88;;;0.30;;
71734;SDS011;59577;52.122;5.406;2022-09-02T03:53:48;0.57;;;0.20;;
71734;SDS011;59577;52.122;5.406;2022-09-02T03:56:15;0.55;;;0.28;;
71734;SDS011;59577;52.122;5.406;2022-09-02T03:58:43;1.83;;;0.30;;
71734;SDS011;59577;52.122;5.406;2022-09-02T04:01:12;1.98;;;0.40;;
71734;SDS011;59577;52.122;5.406;2022-09-02T04:03:41;0.85;;;0.30;;
71734;SDS011;59577;52.122;5.406;2022-09-02T04:06:08;2.28;;;0.38;;
71734;SDS011;59577;52.122;5.406;2022-09-02T04:08:38;0.60;;;0.30;;
71734;SDS011;59577;52.122;5.406;2022-09-02T04:11:08;0.53;;;0.30;;
71734;SDS011;59577;52.122;5.406;2022-09-02T04:13:38;0.50;;;0.20;;
71734;SDS011;59577;52.122;5.406;2022-09-02T04:16:08;0.50;;;0.30;;
71734;SDS011;59577;52.122;5.406;2022-09-02T04:18:37;0.40;;;0.20;;
71734;SDS011;59577;52.122;5.406;2022-09-02T04:21:03;2.25;;;0.20;;
71734;SDS011;59577;52.122;5.406;2022-09-02T04:23:30;1.00;;;0.40;;
71734;SDS011;59577;52.122;5.406;2022-09-02T04:25:57;0.88;;;0.40;;
71734;SDS011;59577;52.122;5.406;2022-09-02T04:28:24;2.58;;;0.20;;
71734;SDS011;59577;52.122;5.406;2022-09-02T04:30:51;0.70;;;0.30;;
71734;SDS011;59577;52.122;5.406;2022-09-02T04:33:17;1.00;;;0.30;;
71734;SDS011;59577;52.122;5.406;2022-09-02T04:35:44;0.73;;;0.40;;
71734;SDS011;59577;52.122;5.406;2022-09-02T04:38:15;2.95;;;0.47;;
71734;SDS011;59577;52.122;5.406;2022-09-02T04:40:42;1.52;;;0.30;;
71734;SDS011;59577;52.122;5.406;2022-09-02T04:43:10;0.55;;;0.40;;
71734;SDS011;59577;52.122;5.406;2022-09-02T04:45:38;1.02;;;0.30;;
71734;SDS011;59577;52.122;5.406;2022-09-02T04:48:06;0.77;;;0.30;;
71734;SDS011;59577;52.122;5.406;2022-09-02T04:50:34;1.48;;;0.30;;
71734;SDS011;59577;52.122;5.406;2022-09-02T04:53:02;0.60;;;0.30;;
71734;SDS011;59577;52.122;5.406;2022-09-02T04:55:29;1.55;;;0.30;;
71734;SDS011;59577;52.122;5.406;2022-09-02T04:57:55;3.05;;;0.40;;
71734;SDS011;59577;52.122;5.406;2022-09-02T05:00:22;1.20;;;0.23;;
71734;SDS011;59577;52.122;5.406;2022-09-02T05:02:50;1.58;;;0.30;;
71734;SDS011;59577;52.122;5.406;2022-09-02T05:05:18;2.60;;;0.43;;
71734;SDS011;59577;52.122;5.406;2022-09-02T05:07:45;1.73;;;0.38;;
71734;SDS011;59577;52.122;5.406;2022-09-02T05:10:11;2.50;;;0.40;;
71734;SDS011;59577;52.122;5.406;2022-09-02T05:12:41;2.17;;;0.33;;
71734;SDS011;59577;52.122;5.406;2022-09-02T05:15:09;0.93;;;0.32;;
71734;SDS011;59577;52.122;5.406;2022-09-02T05:17:36;1.75;;;0.30;;
71734;SDS011;59577;52.122;5.406;2022-09-02T05:20:04;1.30;;;0.32;;
71734;SDS011;59577;52.122;5.406;2022-09-02T05:22:33;2.20;;;0.40;;
71734;SDS011;59577;52.122;5.406;2022-09-02T05:25:00;1.13;;;0.40;;
71734;SDS011;59577;52.122;5.406;2022-09-02T05:27:27;4.20;;;0.47;;
71734;SDS011;59577;52.122;5.406;2022-09-02T05:29:54;2.58;;;0.80;;
71734;SDS011;59577;52.122;5.406;2022-09-02T05:32:21;2.33;;;0.30;;
71734;SDS011;59577;52.122;5.406;2022-09-02T05:34:48;0.98;;;0.40;;
71734;SDS011;59577;52.122;5.406;2022-09-02T05:37:15;5.07;;;0.50;;
71734;SDS011;59577;52.122;5.406;2022-09-02T05:39:42;3.08;;;0.55;;
71734;SDS011;59577;52.122;5.406;2022-09-02T05:42:08;2.35;;;0.28;;
71734;SDS011;59577;52.122;5.406;2022-09-02T05:44:35;0.90;;;0.40;;
71734;SDS011;59577;52.122;5.406;2022-09-02T05:47:02;3.83;;;0.30;;
71734;SDS011;59577;52.122;5.406;2022-09-02T05:49:29;1.20;;;0.37;;
71734;SDS011;59577;52.122;5.406;2022-09-02T05:51:57;3.10;;;0.35;;
71734;SDS011;59577;52.122;5.406;2022-09-02T05:54:26;3.35;;;0.40;;
71734;SDS011;59577;52.122;5.406;2022-09-02T05:56:59;2.45;;;0.40;;
71734;SDS011;59577;52.122;5.406;2022-09-02T05:59:28;4.78;;;0.30;;
71734;SDS011;59577;52.122;5.406;2022-09-02T06:01:55;1.13;;;0.40;;
71734;SDS011;59577;52.122;5.406;2022-09-02T06:04:24;1.70;;;0.40;;
71734;SDS011;59577;52.122;5.406;2022-09-02T06:06:51;1.50;;;0.40;;
71734;SDS011;59577;52.122;5.406;2022-09-02T06:09:20;1.83;;;0.50;;
71734;SDS011;59577;52.122;5.406;2022-09-02T06:11:48;1.05;;;0.30;;
71734;SDS011;59577;52.122;5.406;2022-09-02T06:14:16;3.60;;;0.33;;
71734;SDS011;59577;52.122;5.406;2022-09-02T06:16:47;2.10;;;0.35;;
71734;SDS011;59577;52.122;5.406;2022-09-02T06:19:15;1.38;;;0.30;;
71734;SDS011;59577;52.122;5.406;2022-09-02T06:21:45;3.15;;;0.30;;
71734;SDS011;59577;52.122;5.406;2022-09-02T06:24:13;1.20;;;0.50;;
71734;SDS011;59577;52.122;5.406;2022-09-02T06:26:40;1.73;;;0.40;;
71734;SDS011;59577;52.122;5.406;2022-09-02T06:29:07;1.10;;;0.30;;
71734;SDS011;59577;52.122;5.406;2022-09-02T06:31:34;4.13;;;0.47;;
71734;SDS011;59577;52.122;5.406;2022-09-02T06:34:01;3.03;;;0.30;;
71734;SDS011;59577;52.122;5.406;2022-09-02T06:36:30;4.10;;;0.40;;
71734;SDS011;59577;52.122;5.406;2022-09-02T06:38:57;1.70;;;0.40;;
71734;SDS011;59577;52.122;5.406;2022-09-02T06:41:26;2.40;;;0.40;;
71734;SDS011;59577;52.122;5.406;2022-09-02T06:43:56;2.78;;;0.52;;
71734;SDS011;59577;52.122;5.406;2022-09-02T06:46:26;1.85;;;0.50;;
71734;SDS011;59577;52.122;5.406;2022-09-02T06:49:00;4.65;;;0.30;;
71734;SDS011;59577;52.122;5.406;2022-09-02T06:51:36;5.73;;;0.40;;
71734;SDS011;59577;52.122;5.406;2022-09-02T06:54:05;1.17;;;0.50;;
71734;SDS011;59577;52.122;5.406;2022-09-02T06:56:34;4.45;;;0.40;;
71734;SDS011;59577;52.122;5.406;2022-09-02T06:59:02;1.65;;;0.50;;
71734;SDS011;59577;52.122;5.406;2022-09-02T07:01:31;3.10;;;0.35;;
71734;SDS011;59577;52.122;5.406;2022-09-02T07:03:59;8.93;;;0.60;;
71734;SDS011;59577;52.122;5.406;2022-09-02T07:06:46;3.72;;;0.50;;
71734;SDS011;59577;52.122;5.406;2022-09-02T07:09:15;5.05;;;0.65;;
71734;SDS011;59577;52.122;5.406;2022-09-02T07:11:44;3.42;;;0.45;;
71734;SDS011;59577;52.122;5.406;2022-09-02T07:14:15;2.97;;;0.32;;
71734;SDS011;59577;52.122;5.406;2022-09-02T07:16:44;0.90;;;0.40;;
71734;SDS011;59577;52.122;5.406;2022-09-02T07:19:12;4.65;;;0.30;;
71734;SDS011;59577;52.122;5.406;2022-09-02T07:21:45;2.35;;;0.43;;
71734;SDS011;59577;52.122;5.406;2022-09-02T07:24:13;1.27;;;0.70;;
71734;SDS011;59577;52.122;5.406;2022-09-02T07:26:41;0.80;;;0.40;;
71734;SDS011;59577;52.122;5.406;2022-09-02T07:29:08;1.67;;;0.37;;
71734;SDS011;59577;52.122;5.406;2022-09-02T07:31:37;0.65;;;0.30;;
71734;SDS011;59577;52.122;5.406;2022-09-02T07:34:06;0.77;;;0.40;;
71734;SDS011;59577;52.122;5.406;2022-09-02T07:36:33;1.75;;;0.40;;
71734;SDS011;59577;52.122;5.406;2022-09-02T07:39:03;2.45;;;0.50;;
71734;SDS011;59577;52.122;5.406;2022-09-02T07:41:31;7.43;;;0.40;;
71734;SDS011;59577;52.122;5.406;2022-09-02T07:43:58;1.95;;;0.40;;
71734;SDS011;59577;52.122;5.406;2022-09-02T07:46:25;4.93;;;0.65;;
71734;SDS011;59577;52.122;5.406;2022-09-02T07:48:51;2.90;;;0.60;;
71734;SDS011;59577;52.122;5.406;2022-09-02T07:51:18;1.20;;;0.60;;
71734;SDS011;59577;52.122;5.406;2022-09-02T07:53:45;5.33;;;0.50;;
71734;SDS011;59577;52.122;5.406;2022-09-02T07:56:12;2.28;;;0.88;;
71734;SDS011;59577;52.122;5.406;2022-09-02T07:58:40;4.50;;;0.60;;
71734;SDS011;59577;52.122;5.406;2022-09-02T08:01:08;1.70;;;0.52;;
71734;SDS011;59577;52.122;5.406;2022-09-02T08:03:35;3.35;;;0.43;;
71734;SDS011;59577;52.122;5.406;2022-09-02T08:06:04;2.67;;;0.53;;
71734;SDS011;59577;52.122;5.406;2022-09-02T08:08:32;2.17;;;0.50;;
71734;SDS011;59577;52.122;5.406;2022-09-02T08:10:59;4.88;;;0.75;;
71734;SDS011;59577;52.122;5.406;2022-09-02T08:13:26;2.53;;;0.63;;
71734;SDS011;59577;52.122;5.406;2022-09-02T08:15:53;3.17;;;0.60;;
71734;SDS011;59577;52.122;5.406;2022-09-02T08:18:20;2.63;;;0.60;;
71734;SDS011;59577;52.122;5.406;2022-09-02T08:20:47;3.80;;;0.50;;
71734;SDS011;59577;52.122;5.406;2022-09-02T08:23:14;4.50;;;0.70;;
71734;SDS011;59577;52.122;5.406;2022-09-02T08:26:01;4.18;;;0.70;;
71734;SDS011;59577;52.122;5.406;2022-09-02T08:28:28;1.45;;;0.60;;
71734;SDS011;59577;52.122;5.406;2022-09-02T08:30:57;2.17;;;0.60;;
71734;SDS011;59577;52.122;5.406;2022-09-02T08:33:24;2.45;;;0.80;;
71734;SDS011;59577;52.122;5.406;2022-09-02T08:35:51;6.82;;;0.77;;
71734;SDS011;59577;52.122;5.406;2022-09-02T08:38:18;2.00;;;0.70;;
71734;SDS011;59577;52.122;5.406;2022-09-02T08:40:47;2.20;;;0.80;;
71734;SDS011;59577;52.122;5.406;2022-09-02T08:43:26;6.07;;;0.77;;
71734;SDS011;59577;52.122;5.406;2022-09-02T08:45:57;3.40;;;0.65;;
71734;SDS011;59577;52.122;5.406;2022-09-02T08:51:29;6.13;;;1.58;;
71734;SDS011;59577;52.122;5.406;2022-09-02T08:54:12;3.88;;;0.90;;
71734;SDS011;59577;52.122;5.406;2022-09-02T08:56:49;1.90;;;0.70;;
71734;SDS011;59577;52.122;5.406;2022-09-02T08:59:17;2.75;;;0.80;;
71734;SDS011;59577;52.122;5.406;2022-09-02T09:01:49;2.17;;;0.85;;
71734;SDS011;59577;52.122;5.406;2022-09-02T09:07:35;2.20;;;1.00;;
71734;SDS011;59577;52.122;5.406;2022-09-02T09:10:12;5.47;;;0.90;;
71734;SDS011;59577;52.122;5.406;2022-09-02T09:13:07;2.40;;;1.05;;
71734;SDS011;59577;52.122;5.406;2022-09-02T09:15:57;4.00;;;1.05;;
71734;SDS011;59577;52.122;5.406;2022-09-02T09:18:37;3.13;;;1.00;;
71734;SDS011;59577;52.122;5.406;2022-09-02T09:21:06;2.22;;;1.08;;
71734;SDS011;59577;52.122;5.406;2022-09-02T09:23:39;2.77;;;0.87;;
71734;SDS011;59577;52.122;5.406;2022-09-02T09:26:14;2.63;;;1.08;;
71734;SDS011;59577;52.122;5.406;2022-09-02T09:28:44;1.95;;;0.95;;
71734;SDS011;59577;52.122;5.406;2022-09-02T09:31:14;2.05;;;1.00;;
71734;SDS011;59577;52.122;5.406;2022-09-02T09:33:54;3.35;;;1.20;;
71734;SDS011;59577;52.122;5.406;2022-09-02T09:41:45;3.75;;;1.05;;
71734;SDS011;59577;52.122;5.406;2022-09-02T09:47:17;4.40;;;1.25;;
71734;SDS011;59577;52.122;5.406;2022-09-02T09:49:46;4.20;;;1.10;;
71734;SDS011;59577;52.122;5.406;2022-09-02T09:52:22;3.60;;;1.05;;
71734;SDS011;59577;52.122;5.406;2022-09-02T09:55:10;2.38;;;1.33;;
71734;SDS011;59577;52.122;5.406;2022-09-02T09:57:50;1.88;;;1.00;;
71734;SDS011;59577;52.122;5.406;2022-09-02T10:00:20;2.75;;;1.13;;
71734;SDS011;59577;52.122;5.406;2022-09-02T10:02:54;1.77;;;0.83;;
71734;SDS011;59577;52.122;5.406;2022-09-02T10:07:53;5.30;;;1.20;;
71734;SDS011;59577;52.122;5.406;2022-09-02T10:10:24;2.55;;;1.40;;
71734;SDS011;59577;52.122;5.406;2022-09-02T10:12:53;2.80;;;1.40;;
71734;SDS011;59577;52.122;5.406;2022-09-02T10:15:29;3.30;;;1.30;;
71734;SDS011;59577;52.122;5.406;2022-09-02T10:18:06;2.70;;;1.20;;
71734;SDS011;59577;52.122;5.406;2022-09-02T10:21:07;5.15;;;1.20;;
71734;SDS011;59577;52.122;5.406;2022-09-02T10:24:03;6.22;;;1.33;;
71734;SDS011;59577;52.122;5.406;2022-09-02T10:26:35;6.43;;;1.33;;
71734;SDS011;59577;52.122;5.406;2022-09-02T10:29:19;3.87;;;1.10;;
71734;SDS011;59577;52.122;5.406;2022-09-02T10:32:06;4.32;;;1.00;;
71734;SDS011;59577;52.122;5.406;2022-09-02T10:38:03;2.80;;;1.30;;
71734;SDS011;59577;52.122;5.406;2022-09-02T10:40:09;2.75;;;1.17;;
71734;SDS011;59577;52.122;5.406;2022-09-02T10:45:44;5.45;;;1.33;;
71734;SDS011;59577;52.122;5.406;2022-09-02T10:48:19;4.55;;;1.25;;
71734;SDS011;59577;52.122;5.406;2022-09-02T10:51:00;7.00;;;1.20;;
71734;SDS011;59577;52.122;5.406;2022-09-02T10:54:09;1.73;;;1.00;;
71734;SDS011;59577;52.122;5.406;2022-09-02T10:56:52;5.17;;;1.50;;
71734;SDS011;59577;52.122;5.406;2022-09-02T10:59:23;1.58;;;0.98;;
71734;SDS011;59577;52.122;5.406;2022-09-02T11:02:09;1.88;;;1.30;;
71734;SDS011;59577;52.122;5.406;2022-09-02T11:07:21;6.45;;;1.20;;
71734;SDS011;59577;52.122;5.406;2022-09-02T11:10:15;2.13;;;1.40;;
71734;SDS011;59577;52.122;5.406;2022-09-02T11:12:53;2.25;;;1.02;;
71734;SDS011;59577;52.122;5.406;2022-09-02T11:18:12;2.75;;;1.60;;
71734;SDS011;59577;52.122;5.406;2022-09-02T11:20:53;3.47;;;1.30;;
71734;SDS011;59577;52.122;5.406;2022-09-02T11:28:59;3.63;;;1.25;;
71734;SDS011;59577;52.122;5.406;2022-09-02T11:37:06;1.60;;;1.00;;
71734;SDS011;59577;52.122;5.406;2022-09-02T11:39:40;2.13;;;0.93;;
71734;SDS011;59577;52.122;5.406;2022-09-02T11:45:21;1.20;;;1.10;;
71734;SDS011;59577;52.122;5.406;2022-09-02T11:50:53;2.23;;;1.10;;
71734;SDS011;59577;52.122;5.406;2022-09-02T11:53:38;2.45;;;0.80;;
71734;SDS011;59577;52.122;5.406;2022-09-02T11:56:18;4.25;;;1.00;;
71734;SDS011;59577;52.122;5.406;2022-09-02T11:58:50;4.03;;;1.10;;
71734;SDS011;59577;52.122;5.406;2022-09-02T12:01:20;4.15;;;0.90;;
71734;SDS011;59577;52.122;5.406;2022-09-02T12:04:16;1.47;;;1.00;;
71734;SDS011;59577;52.122;5.406;2022-09-02T12:09:44;3.05;;;1.10;;
71734;SDS011;59577;52.122;5.406;2022-09-02T12:17:35;1.20;;;0.70;;
71734;SDS011;59577;52.122;5.406;2022-09-02T12:20:06;3.33;;;1.20;;
71734;SDS011;59577;52.122;5.406;2022-09-02T12:22:38;3.08;;;0.95;;
71734;SDS011;59577;52.122;5.406;2022-09-02T12:33:39;3.83;;;1.35;;
71734;SDS011;59577;52.122;5.406;2022-09-02T12:36:08;2.30;;;1.55;;
71734;SDS011;59577;52.122;5.406;2022-09-02T12:38:37;3.30;;;1.08;;
71734;SDS011;59577;52.122;5.406;2022-09-02T12:43:51;3.23;;;1.13;;
71734;SDS011;59577;52.122;5.406;2022-09-02T12:46:44;1.98;;;1.20;;
71734;SDS011;59577;52.122;5.406;2022-09-02T12:54:36;1.85;;;1.20;;
71734;SDS011;59577;52.122;5.406;2022-09-02T12:57:09;2.47;;;1.17;;
71734;SDS011;59577;52.122;5.406;2022-09-02T12:59:37;4.72;;;1.20;;
71734;SDS011;59577;52.122;5.406;2022-09-02T13:05:46;3.05;;;1.00;;
71734;SDS011;59577;52.122;5.406;2022-09-02T13:08:22;4.22;;;1.10;;
71734;SDS011;59577;52.122;5.406;2022-09-02T13:14:05;5.07;;;1.23;;
71734;SDS011;59577;52.122;5.406;2022-09-02T13:17:28;1.20;;;1.10;;
71734;SDS011;59577;52.122;5.406;2022-09-02T13:20:17;2.95;;;1.20;;
71734;SDS011;59577;52.122;5.406;2022-09-02T13:29:15;2.80;;;0.95;;
71734;SDS011;59577;52.122;5.406;2022-09-02T13:34:42;3.13;;;0.90;;
71734;SDS011;59577;52.122;5.406;2022-09-02T13:39:56;1.50;;;1.00;;
71734;SDS011;59577;52.122;5.406;2022-09-02T13:42:24;3.60;;;1.10;;
71734;SDS011;59577;52.122;5.406;2022-09-02T13:47:56;3.42;;;1.13;;
71734;SDS011;59577;52.122;5.406;2022-09-02T13:50:29;1.95;;;0.85;;
71734;SDS011;59577;52.122;5.406;2022-09-02T13:53:00;2.00;;;1.00;;
71734;SDS011;59577;52.122;5.406;2022-09-02T13:55:52;3.63;;;1.05;;
71734;SDS011;59577;52.122;5.406;2022-09-02T14:00:56;4.05;;;1.20;;
71734;SDS011;59577;52.122;5.406;2022-09-02T14:03:27;5.55;;;1.17;;
71734;SDS011;59577;52.122;5.406;2022-09-02T14:05:58;1.53;;;1.10;;
71734;SDS011;59577;52.122;5.406;2022-09-02T14:08:26;1.10;;;1.00;;
71734;SDS011;59577;52.122;5.406;2022-09-02T14:10:54;2.80;;;0.98;;
71734;SDS011;59577;52.122;5.406;2022-09-02T14:13:21;2.63;;;1.15;;
71734;SDS011;59577;52.122;5.406;2022-09-02T14:15:48;5.30;;;1.10;;
71734;SDS011;59577;52.122;5.406;2022-09-02T14:18:18;3.90;;;1.13;;
71734;SDS011;59577;52.122;5.406;2022-09-02T14:21:09;2.85;;;1.20;;
71734;SDS011;59577;52.122;5.406;2022-09-02T14:23:51;3.90;;;1.25;;
71734;SDS011;59577;52.122;5.406;2022-09-02T14:26:19;4.90;;;1.00;;
71734;SDS011;59577;52.122;5.406;2022-09-02T14:28:55;6.40;;;1.30;;
71734;SDS011;59577;52.122;5.406;2022-09-02T14:31:25;6.50;;;1.00;;
71734;SDS011;59577;52.122;5.406;2022-09-02T14:33:56;2.92;;;1.15;;
71734;SDS011;59577;52.122;5.406;2022-09-02T14:38:50;3.25;;;1.05;;
71734;SDS011;59577;52.122;5.406;2022-09-02T14:41:26;2.88;;;1.20;;
71734;SDS011;59577;52.122;5.406;2022-09-02T14:46:29;4.78;;;1.80;;
71734;SDS011;59577;52.122;5.406;2022-09-02T14:49:00;3.83;;;1.10;;
71734;SDS011;59577;52.122;5.406;2022-09-02T14:51:36;5.85;;;1.20;;
71734;SDS011;59577;52.122;5.406;2022-09-02T14:54:05;3.13;;;1.17;;
71734;SDS011;59577;52.122;5.406;2022-09-02T14:56:46;2.10;;;1.07;;
71734;SDS011;59577;52.122;5.406;2022-09-02T14:59:17;1.55;;;0.82;;
71734;SDS011;59577;52.122;5.406;2022-09-02T15:01:46;2.00;;;1.10;;
71734;SDS011;59577;52.122;5.406;2022-09-02T15:04:17;2.00;;;1.10;;
71734;SDS011;59577;52.122;5.406;2022-09-02T15:06:44;2.85;;;1.00;;
71734;SDS011;59577;52.122;5.406;2022-09-02T15:09:12;1.53;;;1.07;;
71734;SDS011;59577;52.122;5.406;2022-09-02T15:11:42;4.18;;;1.00;;
71734;SDS011;59577;52.122;5.406;2022-09-02T15:14:12;4.72;;;1.35;;
71734;SDS011;59577;52.122;5.406;2022-09-02T15:16:39;5.22;;;1.33;;
71734;SDS011;59577;52.122;5.406;2022-09-02T15:19:05;2.78;;;1.00;;
71734;SDS011;59577;52.122;5.406;2022-09-02T15:21:32;3.10;;;1.17;;
71734;SDS011;59577;52.122;5.406;2022-09-02T15:23:58;2.25;;;1.00;;
71734;SDS011;59577;52.122;5.406;2022-09-02T15:26:25;1.92;;;1.52;;
71734;SDS011;59577;52.122;5.406;2022-09-02T15:28:51;5.13;;;1.25;;
71734;SDS011;59577;52.122;5.406;2022-09-02T15:31:18;1.20;;;1.02;;
71734;SDS011;59577;52.122;5.406;2022-09-02T15:33:48;1.97;;;0.83;;
71734;SDS011;59577;52.122;5.406;2022-09-02T15:36:16;1.80;;;1.50;;
71734;SDS011;59577;52.122;5.406;2022-09-02T15:38:44;2.88;;;1.17;;
71734;SDS011;59577;52.122;5.406;2022-09-02T15:41:11;3.80;;;1.17;;
71734;SDS011;59577;52.122;5.406;2022-09-02T15:43:39;3.78;;;3.15;;
71734;SDS011;59577;52.122;5.406;2022-09-02T15:46:14;2.43;;;1.20;;
71734;SDS011;59577;52.122;5.406;2022-09-02T15:48:43;2.33;;;1.17;;
71734;SDS011;59577;52.122;5.406;2022-09-02T15:51:10;2.80;;;1.33;;
71734;SDS011;59577;52.122;5.406;2022-09-02T15:53:38;5.47;;;1.02;;
71734;SDS011;59577;52.122;5.406;2022-09-02T15:56:09;2.40;;;0.95;;
71734;SDS011;59577;52.122;5.406;2022-09-02T15:58:44;1.27;;;1.07;;
71734;SDS011;59577;52.122;5.406;2022-09-02T16:01:10;1.75;;;1.20;;
71734;SDS011;59577;52.122;5.406;2022-09-02T16:03:37;1.85;;;1.05;;
71734;SDS011;59577;52.122;5.406;2022-09-02T16:06:05;3.13;;;0.90;;
71734;SDS011;59577;52.122;5.406;2022-09-02T16:08:33;6.70;;;1.48;;
71734;SDS011;59577;52.122;5.406;2022-09-02T16:11:06;2.97;;;1.00;;
71734;SDS011;59577;52.122;5.406;2022-09-02T16:13:34;1.90;;;1.20;;
71734;SDS011;59577;52.122;5.406;2022-09-02T16:16:03;5.50;;;0.90;;
71734;SDS011;59577;52.122;5.406;2022-09-02T16:18:33;1.83;;;0.90;;
71734;SDS011;59577;52.122;5.406;2022-09-02T16:21:02;2.00;;;1.50;;
71734;SDS011;59577;52.122;5.406;2022-09-02T16:23:30;9.00;;;1.47;;
71734;SDS011;59577;52.122;5.406;2022-09-02T16:26:08;3.45;;;1.42;;
71734;SDS011;59577;52.122;5.406;2022-09-02T16:28:46;5.00;;;2.35;;
71734;SDS011;59577;52.122;5.406;2022-09-02T16:31:14;4.63;;;1.23;;
71734;SDS011;59577;52.122;5.406;2022-09-02T16:36:23;1.70;;;1.30;;
71734;SDS011;59577;52.122;5.406;2022-09-02T16:38:58;1.73;;;1.00;;
71734;SDS011;59577;52.122;5.406;2022-09-02T16:41:29;3.80;;;0.80;;
71734;SDS011;59577;52.122;5.406;2022-09-02T16:44:16;5.88;;;1.00;;
71734;SDS011;59577;52.122;5.406;2022-09-02T16:46:45;2.72;;;0.85;;
71734;SDS011;59577;52.122;5.406;2022-09-02T16:49:14;1.83;;;0.90;;
71734;SDS011;59577;52.122;5.406;2022-09-02T16:51:44;4.03;;;1.00;;
71734;SDS011;59577;52.122;5.406;2022-09-02T16:54:14;1.73;;;1.00;;